Observation data for Lamesa on 02/12/2018      Previous  Date  Next       Current Mesonet Observations  Soil Data  Daily Summary Page  Observations in Plain Language
KLES 120600Z 12002KT M04/M13 A3024 RMK A01 T10381127  RH  051%=      5-min Rain = 0
KLES 120605Z 12002KT M04/M12 A3025 RMK A01 T10401124  RH  053%=      5-min Rain = 0
KLES 120610Z 12003KT M04/M13 A3025 RMK A01 T10401126  RH  052%=      5-min Rain = 0
KLES 120615Z 13004KT M04/M13 A3025 RMK A01 T10401129  RH  050%=      5-min Rain = 0
KLES 120620Z 12004KT M04/M13 A3025 RMK A01 T10411131  RH  050%=      5-min Rain = 0
KLES 120625Z 12004KT M04/M13 A3025 RMK A01 T10411130  RH  051%=      5-min Rain = 0
KLES 120630Z 12004KT M04/M13 A3025 RMK A01 T10401131  RH  050%=      5-min Rain = 0
KLES 120635Z 11004KT M04/M13 A3025 RMK A01 T10411132  RH  050%=      5-min Rain = 0
KLES 120640Z 10004KT M04/M13 A3025 RMK A01 T10431132  RH  050%=      5-min Rain = 0
KLES 120645Z 10004KT M04/M13 A3025 RMK A01 T10421131  RH  051%=      5-min Rain = 0
KLES 120650Z 10004KT M04/M13 A3025 RMK A01 T10411131  RH  050%=      5-min Rain = 0
KLES 120655Z 12003KT M04/M13 A3025 RMK A01 T10411131  RH  050%=      5-min Rain = 0
KLES 120700Z 12004KT M04/M13 A3025 RMK A01 T10411130  RH  051%=      5-min Rain = 0
KLES 120705Z 12004KT M04/M13 A3025 RMK A01 T10401130  RH  050%=      5-min Rain = 0
KLES 120710Z 12005KT M04/M13 A3026 RMK A01 T10401131  RH  050%=      5-min Rain = 0
KLES 120715Z 13005KT M04/M13 A3026 RMK A01 T10421129  RH  051%=      5-min Rain = 0
KLES 120720Z 14006KT M04/M13 A3026 RMK A01 T10421125  RH  053%=      5-min Rain = 0
KLES 120725Z 14005KT M04/M12 A3026 RMK A01 T10391122  RH  053%=      5-min Rain = 0
KLES 120730Z 14005KT M04/M12 A3027 RMK A01 T10381122  RH  053%=      5-min Rain = 0
KLES 120735Z 14005KT M04/M12 A3027 RMK A01 T10381122  RH  053%=      5-min Rain = 0
KLES 120740Z 14005KT M04/M12 A3027 RMK A01 T10391124  RH  052%=      5-min Rain = 0
KLES 120745Z 13004KT M04/M13 A3027 RMK A01 T10411126  RH  052%=      5-min Rain = 0
KLES 120750Z 13003KT M05/M13 A3027 RMK A01 T10471131  RH  053%=      5-min Rain = 0
KLES 120755Z 13002KT M05/M13 A3027 RMK A01 T10501131  RH  054%=      5-min Rain = 0
KLES 120800Z 13002KT M05/M13 A3027 RMK A01 T10501128  RH  055%=      5-min Rain = 0
KLES 120805Z 13003KT M05/M13 A3026 RMK A01 T10491127  RH  055%=      5-min Rain = 0
KLES 120810Z 13003KT M05/M13 A3026 RMK A01 T10491128  RH  055%=      5-min Rain = 0
KLES 120815Z 14003KT M05/M13 A3027 RMK A01 T10501129  RH  055%=      5-min Rain = 0
KLES 120820Z 14003KT M05/M13 A3027 RMK A01 T10511129  RH  055%=      5-min Rain = 0
KLES 120825Z 13003KT M05/M13 A3027 RMK A01 T10511128  RH  056%=      5-min Rain = 0
KLES 120830Z 14003KT M05/M13 A3027 RMK A01 T10521129  RH  055%=      5-min Rain = 0
KLES 120835Z 14003KT M05/M13 A3027 RMK A01 T10521127  RH  056%=      5-min Rain = 0
KLES 120840Z 14003KT M05/M13 A3027 RMK A01 T10501127  RH  055%=      5-min Rain = 0
KLES 120845Z 14004KT M05/M13 A3027 RMK A01 T10501127  RH  055%=      5-min Rain = 0
KLES 120850Z 13004KT M05/M13 A3027 RMK A01 T10491127  RH  055%=      5-min Rain = 0
KLES 120855Z 13004KT M05/M13 A3027 RMK A01 T10481127  RH  055%=      5-min Rain = 0
KLES 120900Z 12003KT M05/M13 A3027 RMK A01 T10471127  RH  054%=      5-min Rain = 0
KLES 120905Z 14003KT M05/M13 A3027 RMK A01 T10461127  RH  054%=      5-min Rain = 0
KLES 120910Z 12003KT M05/M13 A3026 RMK A01 T10451126  RH  054%=      5-min Rain = 0
KLES 120915Z 11003KT M04/M13 A3026 RMK A01 T10441126  RH  053%=      5-min Rain = 0
KLES 120920Z 12004KT M04/M13 A3026 RMK A01 T10441126  RH  054%=      5-min Rain = 0
KLES 120925Z 12004KT M04/M13 A3026 RMK A01 T10431126  RH  053%=      5-min Rain = 0
KLES 120930Z 11003KT M04/M13 A3026 RMK A01 T10401125  RH  052%=      5-min Rain = 0
KLES 120935Z 10003KT M04/M13 A3026 RMK A01 T10401126  RH  052%=      5-min Rain = 0
KLES 120940Z 10003KT M04/M13 A3026 RMK A01 T10411126  RH  052%=      5-min Rain = 0
KLES 120945Z 10003KT M04/M12 A3026 RMK A01 T10401124  RH  053%=      5-min Rain = 0
KLES 120950Z 11002KT M04/M12 A3027 RMK A01 T10381124  RH  052%=      5-min Rain = 0
KLES 120955Z 11000KT M04/M12 A3027 RMK A01 T10381123  RH  052%=      5-min Rain = 0
KLES 121000Z 00000KT M04/M12 A3027 RMK A01 T10361122  RH  052%=      5-min Rain = 0
KLES 121005Z 03001KT M04/M12 A3027 RMK A01 T10351122  RH  052%=      5-min Rain = 0
KLES 121010Z 06002KT M03/M12 A3027 RMK A01 T10341120  RH  052%=      5-min Rain = 0
KLES 121015Z 10003KT M03/M12 A3027 RMK A01 T10341119  RH  052%=      5-min Rain = 0
KLES 121020Z 10003KT M03/M12 A3027 RMK A01 T10311119  RH  051%=      5-min Rain = 0
KLES 121025Z 11004KT M03/M12 A3027 RMK A01 T10311121  RH  051%=      5-min Rain = 0
KLES 121030Z 11004KT M03/M12 A3026 RMK A01 T10311122  RH  050%=      5-min Rain = 0
KLES 121035Z 12004KT M03/M12 A3026 RMK A01 T10321122  RH  050%=      5-min Rain = 0
KLES 121040Z 12004KT M03/M12 A3026 RMK A01 T10311122  RH  050%=      5-min Rain = 0
KLES 121045Z 12004KT M03/M12 A3027 RMK A01 T10291122  RH  049%=      5-min Rain = 0
KLES 121050Z 12004KT M03/M12 A3027 RMK A01 T10281123  RH  048%=      5-min Rain = 0
KLES 121055Z 09003KT M03/M12 A3027 RMK A01 T10281123  RH  048%=      5-min Rain = 0
KLES 121100Z 10003KT M03/M12 A3027 RMK A01 T10271122  RH  049%=      5-min Rain = 0
KLES 121105Z 10004KT M03/M12 A3027 RMK A01 T10261121  RH  049%=      5-min Rain = 0
KLES 121110Z 11003KT M03/M12 A3027 RMK A01 T10251122  RH  048%=      5-min Rain = 0
KLES 121115Z 10003KT M03/M12 A3027 RMK A01 T10251121  RH  048%=      5-min Rain = 0
KLES 121120Z 10003KT M02/M12 A3027 RMK A01 T10241120  RH  048%=      5-min Rain = 0
KLES 121125Z 11003KT M02/M12 A3027 RMK A01 T10241120  RH  048%=      5-min Rain = 0
KLES 121130Z 11004KT M02/M12 A3027 RMK A01 T10231119  RH  048%=      5-min Rain = 0
KLES 121135Z 11004KT M02/M12 A3027 RMK A01 T10221119  RH  048%=      5-min Rain = 0
KLES 121140Z 10005KT M02/M12 A3027 RMK A01 T10221118  RH  048%=      5-min Rain = 0
KLES 121145Z 10005KT M02/M12 A3027 RMK A01 T10211118  RH  048%=      5-min Rain = 0
KLES 121150Z 10006KT M02/M12 A3027 RMK A01 T10191118  RH  047%=      5-min Rain = 0
KLES 121155Z 11005KT M02/M12 A3028 RMK A01 T10191118  RH  047%=      5-min Rain = 0
KLES 121200Z 11005KT M02/M12 A3028 RMK A01 T10201118  RH  048%=      5-min Rain = 0
KLES 121205Z 11005KT M02/M12 A3028 RMK A01 T10211118  RH  048%=      5-min Rain = 0
KLES 121210Z 11004KT M02/M12 A3028 RMK A01 T10231118  RH  049%=      5-min Rain = 0
KLES 121215Z 11003KT M03/M12 A3028 RMK A01 T10251119  RH  049%=      5-min Rain = 0
KLES 121220Z 10003KT M03/M12 A3028 RMK A01 T10271119  RH  050%=      5-min Rain = 0
KLES 121225Z 09004KT M03/M12 A3028 RMK A01 T10281120  RH  050%=      5-min Rain = 0
KLES 121230Z 10004KT M03/M12 A3028 RMK A01 T10281119  RH  050%=      5-min Rain = 0
KLES 121235Z 09005KT M03/M12 A3027 RMK A01 T10291120  RH  050%=      5-min Rain = 0
KLES 121240Z 09005KT M03/M12 A3027 RMK A01 T10301120  RH  050%=      5-min Rain = 0
KLES 121245Z 11005KT M03/M12 A3027 RMK A01 T10281119  RH  050%=      5-min Rain = 0
KLES 121250Z 12005KT M03/M12 A3028 RMK A01 T10281119  RH  050%=      5-min Rain = 0
KLES 121255Z 11006KT M03/M12 A3027 RMK A01 T10281119  RH  050%=      5-min Rain = 0
KLES 121300Z 11006KT M03/M12 A3027 RMK A01 T10301119  RH  051%=      5-min Rain = 0
KLES 121305Z 12005KT M03/M12 A3027 RMK A01 T10311119  RH  051%=      5-min Rain = 0
KLES 121310Z 10005KT M03/M12 A3027 RMK A01 T10311120  RH  051%=      5-min Rain = 0
KLES 121315Z 12005KT M03/M12 A3028 RMK A01 T10311120  RH  051%=      5-min Rain = 0
KLES 121320Z 12005KT M03/M12 A3028 RMK A01 T10321121  RH  051%=      5-min Rain = 0
KLES 121325Z 12005KT M03/M12 A3029 RMK A01 T10341121  RH  052%=      5-min Rain = 0
KLES 121330Z 12004KT M04/M12 A3029 RMK A01 T10351122  RH  052%=      5-min Rain = 0
KLES 121335Z 12005KT M04/M12 A3029 RMK A01 T10371122  RH  052%=      5-min Rain = 0
KLES 121340Z 11005KT M04/M12 A3029 RMK A01 T10371123  RH  052%=      5-min Rain = 0
KLES 121345Z 08004KT M04/M12 A3029 RMK A01 T10401124  RH  053%=      5-min Rain = 0
KLES 121350Z 11005KT M04/M12 A303 RMK A01 T10401123  RH  053%=      5-min Rain = 0
KLES 121355Z 11004KT M04/M12 A303 RMK A01 T10391123  RH  053%=      5-min Rain = 0
KLES 121400Z 09004KT M04/M12 A303 RMK A01 T10371122  RH  052%=      5-min Rain = 0
KLES 121405Z 10005KT M04/M12 A3031 RMK A01 T10351122  RH  052%=      5-min Rain = 0
KLES 121410Z 09004KT M03/M12 A3031 RMK A01 T10331122  RH  051%=      5-min Rain = 0
KLES 121415Z 08004KT M03/M12 A303 RMK A01 T10331121  RH  051%=      5-min Rain = 0
KLES 121420Z 09004KT M03/M12 A3031 RMK A01 T10291120  RH  050%=      5-min Rain = 0
KLES 121425Z 09005KT M03/M12 A3031 RMK A01 T10261118  RH  050%=      5-min Rain = 0
KLES 121430Z 08006KT M02/M12 A3031 RMK A01 T10221117  RH  049%=      5-min Rain = 0
KLES 121435Z 08006KT M02/M12 A3031 RMK A01 T10211117  RH  048%=      5-min Rain = 0
KLES 121440Z 07007KT M02/M12 A303 RMK A01 T10181116  RH  048%=      5-min Rain = 0
KLES 121445Z 08006KT M02/M12 A303 RMK A01 T10161115  RH  047%=      5-min Rain = 0
KLES 121450Z 08006KT M01/M12 A3031 RMK A01 T10131115  RH  046%=      5-min Rain = 0
KLES 121455Z 08006KT M01/M12 A3031 RMK A01 T10111115  RH  046%=      5-min Rain = 0
KLES 121500Z 08007KT M01/M11 A3031 RMK A01 T10101114  RH  046%=      5-min Rain = 0
KLES 121505Z 09007KT M01/M11 A3031 RMK A01 T10071114  RH  045%=      5-min Rain = 0
KLES 121510Z 09007KT M01/M11 A3032 RMK A01 T10071113  RH  045%=      5-min Rain = 0
KLES 121515Z 09008KT M00/M11 A3032 RMK A01 T10041112  RH  044%=      5-min Rain = 0
KLES 121520Z 10009KT M00/M11 A3032 RMK A01 T10021113  RH  044%=      5-min Rain = 0
KLES 121525Z 09008KT M00/M11 A3032 RMK A01 T10021113  RH  044%=      5-min Rain = 0
KLES 121530Z 09008KT 00/M11 A3032 RMK A01 T00011113  RH  043%=      5-min Rain = 0
KLES 121535Z 09008KT 00/M11 A3031 RMK A01 T00021113  RH  042%=      5-min Rain = 0
KLES 121540Z 09009KT 01/M11 A3031 RMK A01 T00051114  RH  041%=      5-min Rain = 0
KLES 121545Z 08009KT 00/M11 A3031 RMK A01 T00041114  RH  041%=      5-min Rain = 0
KLES 121550Z 09009KT 00/M11 A3031 RMK A01 T00041114  RH  041%=      5-min Rain = 0
KLES 121555Z 09009KT 01/M11 A3031 RMK A01 T00071113  RH  041%=      5-min Rain = 0
KLES 121600Z 10012KT 01/M12 A3031 RMK A01 T00081118  RH  039%=      5-min Rain = 0
KLES 121605Z 10009KT 01/M12 A3032 RMK A01 T00101115  RH  039%=      5-min Rain = 0
KLES 121610Z 10010G15KT 01/M12 A3032 RMK A01 T00121116  RH  038%=      5-min Rain = 0
KLES 121615Z 10010KT 02/M12 A3032 RMK A01 T00151117  RH  037%=      5-min Rain = 0
KLES 121620Z 10010KT 01/M12 A3032 RMK A01 T00141116  RH  038%=      5-min Rain = 0
KLES 121625Z 09009KT 02/M11 A3032 RMK A01 T00171114  RH  038%=      5-min Rain = 0
KLES 121630Z 11009KT 02/M11 A3032 RMK A01 T00201113  RH  037%=      5-min Rain = 0
KLES 121635Z 10012KT 02/M11 A3031 RMK A01 T00241113  RH  036%=      5-min Rain = 0
KLES 121640Z 11011KT 02/M11 A3031 RMK A01 T00221113  RH  036%=      5-min Rain = 0
KLES 121645Z 11011KT 02/M11 A3031 RMK A01 T00231112  RH  036%=      5-min Rain = 0
KLES 121650Z 10011KT 03/M11 A3031 RMK A01 T00261111  RH  036%=      5-min Rain = 0
KLES 121655Z 10012KT 03/M11 A3031 RMK A01 T00281110  RH  036%=      5-min Rain = 0
KLES 121700Z 11011KT 03/M11 A3031 RMK A01 T00331110  RH  035%=      5-min Rain = 0
KLES 121705Z 11012KT 03/M11 A3031 RMK A01 T00301111  RH  035%=      5-min Rain = 0
KLES 121710Z 10012KT 03/M11 A3031 RMK A01 T00331110  RH  035%=      5-min Rain = 0
KLES 121715Z 10012KT 03/M11 A3031 RMK A01 T00331110  RH  035%=      5-min Rain = 0
KLES 121720Z 10011KT 04/M11 A3031 RMK A01 T00351110  RH  034%=      5-min Rain = 0
KLES 121725Z 11013KT 04/M11 A3031 RMK A01 T00361111  RH  034%=      5-min Rain = 0
KLES 121730Z 11010KT 04/M11 A3031 RMK A01 T00381109  RH  034%=      5-min Rain = 0
KLES 121735Z 10012KT 04/M11 A303 RMK A01 T00401109  RH  033%=      5-min Rain = 0
KLES 121740Z 11012KT 04/M11 A303 RMK A01 T00421107  RH  033%=      5-min Rain = 0
KLES 121745Z 12012G18KT 04/M11 A303 RMK A01 T00431105  RH  033%=      5-min Rain = 0
KLES 121750Z 12011G16KT 04/M11 A303 RMK A01 T00431105  RH  034%=      5-min Rain = 0
KLES 121755Z 12012G18KT 04/M11 A303 RMK A01 T00431106  RH  033%=      5-min Rain = 0
KLES 121800Z 12011KT 05/M11 A303 RMK A01 T00451105  RH  033%=      5-min Rain = 0
KLES 121805Z 10011KT 05/M11 A3029 RMK A01 T00461106  RH  033%=      5-min Rain = 0
KLES 121810Z 12012G18KT 05/M10 A3029 RMK A01 T00471103  RH  033%=      5-min Rain = 0
KLES 121815Z 12013KT 05/M10 A3029 RMK A01 T00481104  RH  033%=      5-min Rain = 0
KLES 121820Z 12011G17KT 05/M10 A3029 RMK A01 T00491103  RH  033%=      5-min Rain = 0
KLES 121825Z 10012G18KT 05/M10 A3028 RMK A01 T00531102  RH  032%=      5-min Rain = 0
KLES 121830Z 12011G17KT 05/M10 A3028 RMK A01 T00541101  RH  032%=      5-min Rain = 0
KLES 121835Z 11009G16KT 05/M10 A3028 RMK A01 T00541101  RH  032%=      5-min Rain = 0
KLES 121840Z 13012G18KT 06/M10 A3027 RMK A01 T00551100  RH  032%=      5-min Rain = 0
KLES 121845Z 12013G18KT 06/M10 A3027 RMK A01 T00561100  RH  032%=      5-min Rain = 0
KLES 121850Z 11012G17KT 06/M10 A3027 RMK A01 T00571099  RH  032%=      5-min Rain = 0
KLES 121855Z 11012G18KT 06/M10 A3026 RMK A01 T00601098  RH  032%=      5-min Rain = 0
KLES 121900Z 11013G18KT 06/M10 A3026 RMK A01 T00621097  RH  031%=      5-min Rain = 0
KLES 121905Z 12011G18KT 07/M10 A3025 RMK A01 T00651095  RH  031%=      5-min Rain = 0
KLES 121910Z 12012G17KT 07/M09 A3025 RMK A01 T00681094  RH  031%=      5-min Rain = 0
KLES 121915Z 12012G17KT 07/M09 A3025 RMK A01 T00691094  RH  031%=      5-min Rain = 0
KLES 121920Z 12012G17KT 07/M09 A3025 RMK A01 T00691094  RH  031%=      5-min Rain = 0
KLES 121925Z 12011KT 07/M09 A3025 RMK A01 T00721092  RH  030%=      5-min Rain = 0
KLES 121930Z 11014KT 07/M09 A3024 RMK A01 T00691094  RH  031%=      5-min Rain = 0
KLES 121935Z 12011KT 07/M09 A3023 RMK A01 T00721092  RH  030%=      5-min Rain = 0
KLES 121940Z 11013G20KT 07/M09 A3023 RMK A01 T00731092  RH  030%=      5-min Rain = 0
KLES 121945Z 11012G18KT 07/M09 A3023 RMK A01 T00731092  RH  030%=      5-min Rain = 0
KLES 121950Z 12013G19KT 08/M09 A3022 RMK A01 T00771090  RH  030%=      5-min Rain = 0
KLES 121955Z 12013G18KT 08/M09 A3022 RMK A01 T00761090  RH  030%=      5-min Rain = 0
KLES 122000Z 11013G19KT 08/M09 A3022 RMK A01 T00761091  RH  030%=      5-min Rain = 0
KLES 122005Z 12012KT 08/M09 A3021 RMK A01 T00791089  RH  030%=      5-min Rain = 0
KLES 122010Z 11011G16KT 08/M09 A3021 RMK A01 T00791089  RH  030%=      5-min Rain = 0
KLES 122015Z 13012G17KT 08/M09 A3021 RMK A01 T00821089  RH  029%=      5-min Rain = 0
KLES 122020Z 11013G19KT 08/M09 A302 RMK A01 T00821089  RH  029%=      5-min Rain = 0
KLES 122025Z 13012G19KT 08/M09 A302 RMK A01 T00841088  RH  029%=      5-min Rain = 0
KLES 122030Z 13013G18KT 09/M09 A302 RMK A01 T00891087  RH  028%=      5-min Rain = 0
KLES 122035Z 12012G19KT 09/M09 A3019 RMK A01 T00871087  RH  029%=      5-min Rain = 0
KLES 122040Z 12013G18KT 09/M09 A3019 RMK A01 T00881087  RH  028%=      5-min Rain = 0
KLES 122045Z 12011G16KT 09/M09 A3019 RMK A01 T00871087  RH  029%=      5-min Rain = 0
KLES 122050Z 12013KT 09/M09 A3019 RMK A01 T00871087  RH  028%=      5-min Rain = 0
KLES 122055Z 13013KT 09/M09 A3019 RMK A01 T00881087  RH  028%=      5-min Rain = 0
KLES 122100Z 12013G19KT 09/M09 A3018 RMK A01 T00851088  RH  029%=      5-min Rain = 0
KLES 122105Z 12014KT 09/M09 A3018 RMK A01 T00851089  RH  029%=      5-min Rain = 0
KLES 122110Z 12014KT 09/M09 A3018 RMK A01 T00851088  RH  029%=      5-min Rain = 0
KLES 122115Z 12014KT 09/M09 A3018 RMK A01 T00861088  RH  029%=      5-min Rain = 0
KLES 122120Z 13013KT 09/M09 A3018 RMK A01 T00871087  RH  029%=      5-min Rain = 0
KLES 122125Z 13014KT 09/M09 A3018 RMK A01 T00871087  RH  029%=      5-min Rain = 0
KLES 122130Z 13014KT 09/M09 A3018 RMK A01 T00881088  RH  028%=      5-min Rain = 0
KLES 122135Z 13013KT 09/M09 A3018 RMK A01 T00871088  RH  029%=      5-min Rain = 0
KLES 122140Z 12012KT 09/M09 A3018 RMK A01 T00871088  RH  028%=      5-min Rain = 0
KLES 122145Z 11011G17KT 09/M09 A3018 RMK A01 T00861088  RH  029%=      5-min Rain = 0
KLES 122150Z 11013G18KT 09/M09 A3018 RMK A01 T00891086  RH  028%=      5-min Rain = 0
KLES 122155Z 11014G19KT 09/M09 A3018 RMK A01 T00901085  RH  028%=      5-min Rain = 0
KLES 122200Z 12013G18KT 09/M08 A3018 RMK A01 T00941084  RH  028%=      5-min Rain = 0
KLES 122205Z 12013G18KT 10/M08 A3018 RMK A01 T00991083  RH  027%=      5-min Rain = 0
KLES 122210Z 12015G20KT 10/M08 A3017 RMK A01 T00981084  RH  027%=      5-min Rain = 0
KLES 122215Z 13013G19KT 10/M08 A3017 RMK A01 T00981083  RH  027%=      5-min Rain = 0
KLES 122220Z 11014G21KT 10/M08 A3017 RMK A01 T01001082  RH  027%=      5-min Rain = 0
KLES 122225Z 11014G20KT 10/M08 A3017 RMK A01 T00991083  RH  027%=      5-min Rain = 0
KLES 122230Z 13013G20KT 10/M08 A3017 RMK A01 T01011081  RH  027%=      5-min Rain = 0
KLES 122235Z 13014G20KT 10/M08 A3017 RMK A01 T01011081  RH  027%=      5-min Rain = 0
KLES 122240Z 13014KT 10/M08 A3018 RMK A01 T00991081  RH  028%=      5-min Rain = 0
KLES 122245Z 13014G19KT 10/M08 A3018 RMK A01 T00991081  RH  028%=      5-min Rain = 0
KLES 122250Z 13014G19KT 10/M08 A3017 RMK A01 T01001082  RH  027%=      5-min Rain = 0
KLES 122255Z 13015G20KT 10/M08 A3017 RMK A01 T01001082  RH  027%=      5-min Rain = 0
KLES 122300Z 13013KT 10/M08 A3017 RMK A01 T01001081  RH  027%=      5-min Rain = 0
KLES 122305Z 13015KT 10/M08 A3018 RMK A01 T00991082  RH  027%=      5-min Rain = 0
KLES 122310Z 13014KT 10/M08 A3018 RMK A01 T00991082  RH  028%=      5-min Rain = 0
KLES 122315Z 12013G18KT 10/M08 A3018 RMK A01 T00991083  RH  027%=      5-min Rain = 0
KLES 122320Z 12013KT 10/M08 A3018 RMK A01 T00981083  RH  027%=      5-min Rain = 0
KLES 122325Z 11012G18KT 10/M08 A3017 RMK A01 T00971082  RH  028%=      5-min Rain = 0
KLES 122330Z 11013G19KT 10/M08 A3017 RMK A01 T00961082  RH  028%=      5-min Rain = 0
KLES 122335Z 12013KT 10/M08 A3017 RMK A01 T00961083  RH  028%=      5-min Rain = 0
KLES 122340Z 12013KT 10/M08 A3017 RMK A01 T00951083  RH  028%=      5-min Rain = 0
KLES 122345Z 12012KT 09/M08 A3017 RMK A01 T00941084  RH  028%=      5-min Rain = 0
KLES 122350Z 12013G18KT 09/M08 A3018 RMK A01 T00931084  RH  028%=      5-min Rain = 0
KLES 122355Z 12012G17KT 09/M08 A3018 RMK A01 T00921084  RH  028%=      5-min Rain = 0
KLES 130000Z 12011KT 09/M09 A3018 RMK A01 T00901085  RH  029%=      5-min Rain = 0
KLES 130005Z 11012KT 09/M09 A3018 RMK A01 T00891085  RH  029%=      5-min Rain = 0
KLES 130010Z 12011KT 09/M09 A3018 RMK A01 T00881085  RH  029%=      5-min Rain = 0
KLES 130015Z 12010KT 09/M09 A3018 RMK A01 T00861085  RH  029%=      5-min Rain = 0
KLES 130020Z 12010KT 08/M09 A3018 RMK A01 T00841086  RH  029%=      5-min Rain = 0
KLES 130025Z 12010KT 08/M09 A3018 RMK A01 T00831086  RH  030%=      5-min Rain = 0
KLES 130030Z 11010KT 08/M09 A3018 RMK A01 T00811085  RH  030%=      5-min Rain = 0
KLES 130035Z 11010G15KT 08/M09 A3018 RMK A01 T00801086  RH  030%=      5-min Rain = 0
KLES 130040Z 11009KT 08/M09 A3018 RMK A01 T00771086  RH  031%=      5-min Rain = 0
KLES 130045Z 11010KT 08/M09 A3018 RMK A01 T00761086  RH  031%=      5-min Rain = 0
KLES 130050Z 11010KT 08/M09 A3018 RMK A01 T00751087  RH  031%=      5-min Rain = 0
KLES 130055Z 11010KT 07/M09 A3018 RMK A01 T00731087  RH  031%=      5-min Rain = 0
KLES 130100Z 11010KT 07/M09 A3019 RMK A01 T00711087  RH  032%=      5-min Rain = 0
KLES 130105Z 11010KT 07/M09 A3019 RMK A01 T00701087  RH  032%=      5-min Rain = 0
KLES 130110Z 11009KT 07/M09 A3019 RMK A01 T00681088  RH  032%=      5-min Rain = 0
KLES 130115Z 11009KT 07/M09 A3019 RMK A01 T00661088  RH  033%=      5-min Rain = 0
KLES 130120Z 11010KT 07/M09 A3019 RMK A01 T00651089  RH  033%=      5-min Rain = 0
KLES 130125Z 11009KT 06/M09 A302 RMK A01 T00631089  RH  033%=      5-min Rain = 0
KLES 130130Z 11009KT 06/M09 A302 RMK A01 T00611088  RH  034%=      5-min Rain = 0
KLES 130135Z 11010KT 06/M09 A302 RMK A01 T00611087  RH  034%=      5-min Rain = 0
KLES 130140Z 11007KT 06/M09 A3021 RMK A01 T00601088  RH  034%=      5-min Rain = 0
KLES 130145Z 10008KT 06/M09 A3021 RMK A01 T00561088  RH  035%=      5-min Rain = 0
KLES 130150Z 10009KT 06/M09 A3021 RMK A01 T00551087  RH  036%=      5-min Rain = 0
KLES 130155Z 10009KT 05/M09 A3021 RMK A01 T00541087  RH  036%=      5-min Rain = 0
KLES 130200Z 11009KT 05/M09 A3021 RMK A01 T00541086  RH  036%=      5-min Rain = 0
KLES 130205Z 10009KT 05/M09 A3022 RMK A01 T00521086  RH  037%=      5-min Rain = 0
KLES 130210Z 10009KT 05/M09 A3022 RMK A01 T00511086  RH  037%=      5-min Rain = 0
KLES 130215Z 10009KT 05/M09 A3022 RMK A01 T00501085  RH  037%=      5-min Rain = 0
KLES 130220Z 10008KT 05/M09 A3022 RMK A01 T00481085  RH  038%=      5-min Rain = 0
KLES 130225Z 10008KT 05/M09 A3022 RMK A01 T00471085  RH  038%=      5-min Rain = 0
KLES 130230Z 10008KT 05/M08 A3022 RMK A01 T00461084  RH  039%=      5-min Rain = 0
KLES 130235Z 10008KT 05/M09 A3022 RMK A01 T00451085  RH  039%=      5-min Rain = 0
KLES 130240Z 09008KT 05/M08 A3022 RMK A01 T00451084  RH  039%=      5-min Rain = 0
KLES 130245Z 10007KT 04/M08 A3022 RMK A01 T00441084  RH  039%=      5-min Rain = 0
KLES 130250Z 10008KT 04/M08 A3022 RMK A01 T00441084  RH  039%=      5-min Rain = 0
KLES 130255Z 10008KT 04/M08 A3023 RMK A01 T00441084  RH  039%=      5-min Rain = 0
KLES 130300Z 10008KT 04/M08 A3023 RMK A01 T00431083  RH  040%=      5-min Rain = 0
KLES 130305Z 11008KT 04/M08 A3023 RMK A01 T00421083  RH  040%=      5-min Rain = 0
KLES 130310Z 10008KT 04/M08 A3023 RMK A01 T00411083  RH  040%=      5-min Rain = 0
KLES 130315Z 10007KT 04/M08 A3023 RMK A01 T00391084  RH  041%=      5-min Rain = 0
KLES 130320Z 11007KT 04/M08 A3023 RMK A01 T00371083  RH  041%=      5-min Rain = 0
KLES 130325Z 11007KT 04/M08 A3023 RMK A01 T00371082  RH  042%=      5-min Rain = 0
KLES 130330Z 11006KT 04/M08 A3023 RMK A01 T00381081  RH  042%=      5-min Rain = 0
KLES 130335Z 10007KT 04/M08 A3023 RMK A01 T00371082  RH  042%=      5-min Rain = 0
KLES 130340Z 10007KT 04/M08 A3024 RMK A01 T00351084  RH  042%=      5-min Rain = 0
KLES 130345Z 09006KT 03/M09 A3024 RMK A01 T00321085  RH  043%=      5-min Rain = 0
KLES 130350Z 08005KT 03/M08 A3025 RMK A01 T00311084  RH  043%=      5-min Rain = 0
KLES 130355Z 09005KT 03/M08 A3025 RMK A01 T00311084  RH  043%=      5-min Rain = 0
KLES 130400Z 09005KT 03/M09 A3025 RMK A01 T00281086  RH  043%=      5-min Rain = 0
KLES 130405Z 10006KT 02/M09 A3025 RMK A01 T00241087  RH  044%=      5-min Rain = 0
KLES 130410Z 09006KT 02/M09 A3025 RMK A01 T00201088  RH  045%=      5-min Rain = 0
KLES 130415Z 08004KT 02/M09 A3025 RMK A01 T00181088  RH  046%=      5-min Rain = 0
KLES 130420Z 09003KT 02/M09 A3025 RMK A01 T00171088  RH  046%=      5-min Rain = 0
KLES 130425Z 10004KT 02/M09 A3025 RMK A01 T00161088  RH  046%=      5-min Rain = 0
KLES 130430Z 10004KT 02/M09 A3025 RMK A01 T00151088  RH  047%=      5-min Rain = 0
KLES 130435Z 10005KT 02/M09 A3025 RMK A01 T00161087  RH  047%=      5-min Rain = 0
KLES 130440Z 10006KT 02/M09 A3025 RMK A01 T00171087  RH  047%=      5-min Rain = 0
KLES 130445Z 10006KT 02/M09 A3025 RMK A01 T00161087  RH  047%=      5-min Rain = 0
KLES 130450Z 10007KT 02/M09 A3025 RMK A01 T00161087  RH  047%=      5-min Rain = 0
KLES 130455Z 10007KT 02/M09 A3024 RMK A01 T00161087  RH  047%=      5-min Rain = 0
KLES 130500Z 09008KT 02/M09 A3024 RMK A01 T00191085  RH  047%=      5-min Rain = 0
KLES 130505Z 08007KT 02/M09 A3024 RMK A01 T00221085  RH  046%=      5-min Rain = 0
KLES 130510Z 08006KT 02/M09 A3024 RMK A01 T00221085  RH  046%=      5-min Rain = 0
KLES 130515Z 06003KT 02/M09 A3024 RMK A01 T00191087  RH  046%=      5-min Rain = 0
KLES 130520Z 05003KT 01/M09 A3024 RMK A01 T00121088  RH  048%=      5-min Rain = 0
KLES 130525Z 07004KT 01/M09 A3024 RMK A01 T00061089  RH  050%=      5-min Rain = 0
KLES 130530Z 07005KT 00/M09 A3024 RMK A01 T00021090  RH  051%=      5-min Rain = 0
KLES 130535Z 08005KT 00/09 A3024 RMK A01 T00000-91  RH  051%=      5-min Rain = 0
KLES 130540Z 09006KT 00/M09 A3024 RMK A01 T00011091  RH  051%=      5-min Rain = 0
KLES 130545Z 09007KT 00/M09 A3024 RMK A01 T00041089  RH  050%=      5-min Rain = 0
KLES 130550Z 10007KT 01/M09 A3024 RMK A01 T00091086  RH  049%=      5-min Rain = 0
KLES 130555Z 10007KT 01/M09 A3024 RMK A01 T00121085  RH  049%=      5-min Rain = 0

Page generated in 0.0092 seconds.